Terminal Aerodrome Forecast
Issued by NWS Wakefield, VA

Home | Current Version | Previous Version | Text Only | Print | Product List | Glossary On
Versions: 1 2 3 4 5 6 7 8 9 10 11 12 13 14 15 16 17 18 19 20 21 22 23 24 25 26 27 28 29 30 31 32 33 34 35
009
FTUS41 KAKQ 251304 AAA
TAFRIC
TAF AMD
KRIC 251304Z 2513/2612 18005KT 6SM BR SCT100 BKN150 WS020/23040KT
     FM251400 19009KT P6SM BKN040 WS020/23040KT
     FM251500 21011KT P6SM BKN070
     FM251700 23012G19KT P6SM BKN070
     FM252300 33005KT P6SM BKN150=

USA.gov is the U.S. government's official web portal to all federal, state and local government web resources and services.